sensor_id;sensor_type;location;lat;lon;timestamp;P1;durP1;ratioP1;P2;durP2;ratioP2
19758;SDS011;10038;42.662;23.278;2022-11-21T00:00:51;7.73;;;5.20;;
19758;SDS011;10038;42.662;23.278;2022-11-21T00:03:19;8.63;;;6.00;;
19758;SDS011;10038;42.662;23.278;2022-11-21T00:05:48;8.10;;;5.60;;
19758;SDS011;10038;42.662;23.278;2022-11-21T00:08:17;7.40;;;5.13;;
19758;SDS011;10038;42.662;23.278;2022-11-21T00:10:45;8.80;;;5.40;;
19758;SDS011;10038;42.662;23.278;2022-11-21T00:13:13;10.50;;;5.17;;
19758;SDS011;10038;42.662;23.278;2022-11-21T00:15:42;5.90;;;5.00;;
19758;SDS011;10038;42.662;23.278;2022-11-21T00:18:09;11.23;;;6.50;;
19758;SDS011;10038;42.662;23.278;2022-11-21T00:20:37;11.20;;;5.97;;
19758;SDS011;10038;42.662;23.278;2022-11-21T00:23:04;9.90;;;6.07;;
19758;SDS011;10038;42.662;23.278;2022-11-21T00:25:31;11.23;;;6.20;;
19758;SDS011;10038;42.662;23.278;2022-11-21T00:27:58;8.83;;;5.70;;
19758;SDS011;10038;42.662;23.278;2022-11-21T00:30:24;7.27;;;5.10;;
19758;SDS011;10038;42.662;23.278;2022-11-21T00:32:53;9.70;;;6.50;;
19758;SDS011;10038;42.662;23.278;2022-11-21T00:35:19;8.43;;;5.83;;
19758;SDS011;10038;42.662;23.278;2022-11-21T00:37:46;12.90;;;7.23;;
19758;SDS011;10038;42.662;23.278;2022-11-21T00:40:14;10.80;;;5.80;;
19758;SDS011;10038;42.662;23.278;2022-11-21T00:42:41;9.80;;;6.17;;
19758;SDS011;10038;42.662;23.278;2022-11-21T00:45:09;10.03;;;6.50;;
19758;SDS011;10038;42.662;23.278;2022-11-21T00:47:36;11.30;;;6.03;;
19758;SDS011;10038;42.662;23.278;2022-11-21T00:50:04;13.77;;;7.47;;
19758;SDS011;10038;42.662;23.278;2022-11-21T00:52:31;7.67;;;5.40;;
19758;SDS011;10038;42.662;23.278;2022-11-21T00:54:58;10.73;;;5.00;;
19758;SDS011;10038;42.662;23.278;2022-11-21T00:57:25;9.03;;;5.63;;
19758;SDS011;10038;42.662;23.278;2022-11-21T00:59:52;16.40;;;6.70;;
19758;SDS011;10038;42.662;23.278;2022-11-21T01:02:18;11.13;;;6.53;;
19758;SDS011;10038;42.662;23.278;2022-11-21T01:04:45;6.70;;;5.20;;
19758;SDS011;10038;42.662;23.278;2022-11-21T01:07:14;8.53;;;5.77;;
19758;SDS011;10038;42.662;23.278;2022-11-21T01:09:40;9.63;;;5.17;;
19758;SDS011;10038;42.662;23.278;2022-11-21T01:12:07;6.60;;;4.37;;
19758;SDS011;10038;42.662;23.278;2022-11-21T01:14:34;8.37;;;4.07;;
19758;SDS011;10038;42.662;23.278;2022-11-21T01:17:01;4.90;;;4.13;;
19758;SDS011;10038;42.662;23.278;2022-11-21T01:19:27;5.00;;;4.00;;
19758;SDS011;10038;42.662;23.278;2022-11-21T01:21:54;7.23;;;4.77;;
19758;SDS011;10038;42.662;23.278;2022-11-21T01:24:22;6.60;;;3.60;;
19758;SDS011;10038;42.662;23.278;2022-11-21T01:26:49;7.03;;;3.50;;
19758;SDS011;10038;42.662;23.278;2022-11-21T01:29:17;9.70;;;4.37;;
19758;SDS011;10038;42.662;23.278;2022-11-21T01:31:44;4.90;;;3.57;;
19758;SDS011;10038;42.662;23.278;2022-11-21T01:34:11;6.30;;;3.93;;
19758;SDS011;10038;42.662;23.278;2022-11-21T01:36:38;8.60;;;5.40;;
19758;SDS011;10038;42.662;23.278;2022-11-21T01:39:05;7.50;;;4.43;;
19758;SDS011;10038;42.662;23.278;2022-11-21T01:41:35;10.30;;;5.10;;
19758;SDS011;10038;42.662;23.278;2022-11-21T01:44:08;7.43;;;4.40;;
19758;SDS011;10038;42.662;23.278;2022-11-21T01:46:40;7.93;;;5.10;;
19758;SDS011;10038;42.662;23.278;2022-11-21T01:49:07;9.67;;;5.90;;
19758;SDS011;10038;42.662;23.278;2022-11-21T01:51:36;7.50;;;4.87;;
19758;SDS011;10038;42.662;23.278;2022-11-21T01:54:07;12.97;;;6.40;;
19758;SDS011;10038;42.662;23.278;2022-11-21T01:56:39;16.60;;;5.87;;
19758;SDS011;10038;42.662;23.278;2022-11-21T01:59:10;10.17;;;5.60;;
19758;SDS011;10038;42.662;23.278;2022-11-21T02:01:42;9.83;;;5.60;;
19758;SDS011;10038;42.662;23.278;2022-11-21T02:04:11;5.13;;;2.20;;
19758;SDS011;10038;42.662;23.278;2022-11-21T02:06:39;5.03;;;3.63;;
19758;SDS011;10038;42.662;23.278;2022-11-21T02:09:06;6.13;;;3.83;;
19758;SDS011;10038;42.662;23.278;2022-11-21T02:11:34;2.77;;;1.90;;
19758;SDS011;10038;42.662;23.278;2022-11-21T02:14:06;3.37;;;2.00;;
19758;SDS011;10038;42.662;23.278;2022-11-21T02:16:34;8.17;;;2.57;;
19758;SDS011;10038;42.662;23.278;2022-11-21T02:19:02;5.40;;;2.37;;
19758;SDS011;10038;42.662;23.278;2022-11-21T02:21:32;2.40;;;1.80;;
19758;SDS011;10038;42.662;23.278;2022-11-21T02:24:12;2.93;;;1.97;;
19758;SDS011;10038;42.662;23.278;2022-11-21T02:26:44;6.03;;;2.00;;
19758;SDS011;10038;42.662;23.278;2022-11-21T02:29:13;6.40;;;2.60;;
19758;SDS011;10038;42.662;23.278;2022-11-21T02:31:40;5.03;;;3.70;;
19758;SDS011;10038;42.662;23.278;2022-11-21T02:34:07;4.27;;;2.20;;
19758;SDS011;10038;42.662;23.278;2022-11-21T02:36:39;5.57;;;2.47;;
19758;SDS011;10038;42.662;23.278;2022-11-21T02:39:09;3.37;;;2.10;;
19758;SDS011;10038;42.662;23.278;2022-11-21T02:41:40;3.43;;;2.50;;
19758;SDS011;10038;42.662;23.278;2022-11-21T02:44:17;3.87;;;2.40;;
19758;SDS011;10038;42.662;23.278;2022-11-21T02:46:49;6.53;;;2.50;;
19758;SDS011;10038;42.662;23.278;2022-11-21T02:49:20;6.40;;;3.50;;
19758;SDS011;10038;42.662;23.278;2022-11-21T02:51:55;5.10;;;3.23;;
19758;SDS011;10038;42.662;23.278;2022-11-21T02:54:21;5.90;;;3.10;;
19758;SDS011;10038;42.662;23.278;2022-11-21T02:56:49;6.13;;;3.70;;
19758;SDS011;10038;42.662;23.278;2022-11-21T02:59:16;4.20;;;2.53;;
19758;SDS011;10038;42.662;23.278;2022-11-21T03:01:43;3.70;;;2.40;;
19758;SDS011;10038;42.662;23.278;2022-11-21T03:04:09;4.40;;;2.43;;
19758;SDS011;10038;42.662;23.278;2022-11-21T03:06:36;4.40;;;3.50;;
19758;SDS011;10038;42.662;23.278;2022-11-21T03:09:03;3.43;;;2.57;;
19758;SDS011;10038;42.662;23.278;2022-11-21T03:11:29;2.80;;;2.50;;
19758;SDS011;10038;42.662;23.278;2022-11-21T03:13:57;3.73;;;2.27;;
19758;SDS011;10038;42.662;23.278;2022-11-21T03:16:24;4.47;;;1.67;;
19758;SDS011;10038;42.662;23.278;2022-11-21T03:18:51;2.30;;;1.90;;
19758;SDS011;10038;42.662;23.278;2022-11-21T03:21:18;5.83;;;2.27;;
19758;SDS011;10038;42.662;23.278;2022-11-21T03:23:44;2.23;;;1.60;;
19758;SDS011;10038;42.662;23.278;2022-11-21T03:26:11;5.43;;;1.97;;
19758;SDS011;10038;42.662;23.278;2022-11-21T03:28:38;8.60;;;1.90;;
19758;SDS011;10038;42.662;23.278;2022-11-21T03:31:08;1.90;;;1.50;;
19758;SDS011;10038;42.662;23.278;2022-11-21T03:33:35;3.87;;;2.00;;
19758;SDS011;10038;42.662;23.278;2022-11-21T03:36:01;2.93;;;1.60;;
19758;SDS011;10038;42.662;23.278;2022-11-21T03:38:28;3.40;;;1.90;;
19758;SDS011;10038;42.662;23.278;2022-11-21T03:40:55;3.13;;;1.53;;
19758;SDS011;10038;42.662;23.278;2022-11-21T03:43:22;1.90;;;1.70;;
19758;SDS011;10038;42.662;23.278;2022-11-21T03:45:48;5.70;;;2.07;;
19758;SDS011;10038;42.662;23.278;2022-11-21T03:48:17;2.80;;;1.20;;
19758;SDS011;10038;42.662;23.278;2022-11-21T03:50:43;3.10;;;1.13;;
19758;SDS011;10038;42.662;23.278;2022-11-21T03:53:10;1.20;;;1.00;;
19758;SDS011;10038;42.662;23.278;2022-11-21T03:55:37;2.33;;;1.00;;
19758;SDS011;10038;42.662;23.278;2022-11-21T03:58:03;3.00;;;0.80;;
19758;SDS011;10038;42.662;23.278;2022-11-21T04:00:30;1.10;;;0.90;;
19758;SDS011;10038;42.662;23.278;2022-11-21T04:02:57;1.30;;;1.17;;
19758;SDS011;10038;42.662;23.278;2022-11-21T04:05:25;2.63;;;1.00;;
19758;SDS011;10038;42.662;23.278;2022-11-21T04:07:52;2.13;;;1.27;;
19758;SDS011;10038;42.662;23.278;2022-11-21T04:10:18;5.57;;;1.30;;
19758;SDS011;10038;42.662;23.278;2022-11-21T04:12:46;2.63;;;0.90;;
19758;SDS011;10038;42.662;23.278;2022-11-21T04:15:12;4.20;;;1.50;;
19758;SDS011;10038;42.662;23.278;2022-11-21T04:17:39;1.10;;;0.97;;
19758;SDS011;10038;42.662;23.278;2022-11-21T04:20:06;2.50;;;1.40;;
19758;SDS011;10038;42.662;23.278;2022-11-21T04:22:35;2.50;;;1.10;;
19758;SDS011;10038;42.662;23.278;2022-11-21T04:25:02;4.23;;;1.10;;
19758;SDS011;10038;42.662;23.278;2022-11-21T04:27:29;2.70;;;1.30;;
19758;SDS011;10038;42.662;23.278;2022-11-21T04:29:56;4.80;;;1.00;;
19758;SDS011;10038;42.662;23.278;2022-11-21T04:32:22;3.00;;;0.90;;
19758;SDS011;10038;42.662;23.278;2022-11-21T04:34:49;1.20;;;0.70;;
19758;SDS011;10038;42.662;23.278;2022-11-21T04:37:16;1.50;;;1.00;;
19758;SDS011;10038;42.662;23.278;2022-11-21T04:39:44;3.63;;;1.03;;
19758;SDS011;10038;42.662;23.278;2022-11-21T04:42:11;3.57;;;1.10;;
19758;SDS011;10038;42.662;23.278;2022-11-21T04:44:37;5.23;;;2.33;;
19758;SDS011;10038;42.662;23.278;2022-11-21T04:47:04;2.20;;;0.97;;
19758;SDS011;10038;42.662;23.278;2022-11-21T04:49:31;5.13;;;1.10;;
19758;SDS011;10038;42.662;23.278;2022-11-21T04:51:57;1.03;;;0.90;;
19758;SDS011;10038;42.662;23.278;2022-11-21T04:54:24;1.07;;;0.80;;
19758;SDS011;10038;42.662;23.278;2022-11-21T04:56:52;1.20;;;0.90;;
19758;SDS011;10038;42.662;23.278;2022-11-21T04:59:19;1.40;;;0.93;;
19758;SDS011;10038;42.662;23.278;2022-11-21T05:01:45;1.53;;;0.90;;
19758;SDS011;10038;42.662;23.278;2022-11-21T05:04:12;1.63;;;1.00;;
19758;SDS011;10038;42.662;23.278;2022-11-21T05:06:39;1.73;;;1.00;;
19758;SDS011;10038;42.662;23.278;2022-11-21T05:09:06;1.57;;;0.90;;
19758;SDS011;10038;42.662;23.278;2022-11-21T05:11:32;1.67;;;0.97;;
19758;SDS011;10038;42.662;23.278;2022-11-21T05:14:18;3.23;;;1.20;;
19758;SDS011;10038;42.662;23.278;2022-11-21T05:16:45;2.47;;;0.83;;
19758;SDS011;10038;42.662;23.278;2022-11-21T05:19:11;1.17;;;0.90;;
19758;SDS011;10038;42.662;23.278;2022-11-21T05:21:38;3.03;;;1.50;;
19758;SDS011;10038;42.662;23.278;2022-11-21T05:24:05;5.93;;;1.00;;
19758;SDS011;10038;42.662;23.278;2022-11-21T05:26:32;2.17;;;1.20;;
19758;SDS011;10038;42.662;23.278;2022-11-21T05:28:59;2.50;;;1.10;;
19758;SDS011;10038;42.662;23.278;2022-11-21T05:31:27;3.77;;;1.00;;
19758;SDS011;10038;42.662;23.278;2022-11-21T05:33:54;6.03;;;1.20;;
19758;SDS011;10038;42.662;23.278;2022-11-21T05:36:21;1.80;;;1.00;;
19758;SDS011;10038;42.662;23.278;2022-11-21T05:38:48;1.77;;;1.10;;
19758;SDS011;10038;42.662;23.278;2022-11-21T05:41:15;1.40;;;1.00;;
19758;SDS011;10038;42.662;23.278;2022-11-21T05:43:41;3.10;;;1.00;;
19758;SDS011;10038;42.662;23.278;2022-11-21T05:46:10;1.40;;;1.00;;
19758;SDS011;10038;42.662;23.278;2022-11-21T05:48:38;1.10;;;0.90;;
19758;SDS011;10038;42.662;23.278;2022-11-21T05:51:05;3.20;;;1.10;;
19758;SDS011;10038;42.662;23.278;2022-11-21T05:53:32;1.90;;;1.00;;
19758;SDS011;10038;42.662;23.278;2022-11-21T05:56:00;1.90;;;1.17;;
19758;SDS011;10038;42.662;23.278;2022-11-21T05:58:28;1.50;;;1.00;;
19758;SDS011;10038;42.662;23.278;2022-11-21T06:00:55;2.03;;;1.27;;
19758;SDS011;10038;42.662;23.278;2022-11-21T06:03:22;2.30;;;1.67;;
19758;SDS011;10038;42.662;23.278;2022-11-21T06:05:52;3.00;;;0.90;;
19758;SDS011;10038;42.662;23.278;2022-11-21T06:08:23;0.97;;;0.70;;
19758;SDS011;10038;42.662;23.278;2022-11-21T06:10:50;0.90;;;0.70;;
19758;SDS011;10038;42.662;23.278;2022-11-21T06:13:17;1.30;;;0.87;;
19758;SDS011;10038;42.662;23.278;2022-11-21T06:15:50;1.30;;;0.70;;
19758;SDS011;10038;42.662;23.278;2022-11-21T06:18:18;1.30;;;0.90;;
19758;SDS011;10038;42.662;23.278;2022-11-21T06:20:46;1.43;;;0.73;;
19758;SDS011;10038;42.662;23.278;2022-11-21T06:23:14;6.33;;;1.00;;
19758;SDS011;10038;42.662;23.278;2022-11-21T06:25:41;2.73;;;1.10;;
19758;SDS011;10038;42.662;23.278;2022-11-21T06:28:08;1.60;;;1.03;;
19758;SDS011;10038;42.662;23.278;2022-11-21T06:30:36;1.10;;;0.80;;
19758;SDS011;10038;42.662;23.278;2022-11-21T06:33:03;1.50;;;0.87;;
19758;SDS011;10038;42.662;23.278;2022-11-21T06:35:31;1.10;;;0.80;;
19758;SDS011;10038;42.662;23.278;2022-11-21T06:37:58;1.13;;;0.90;;
19758;SDS011;10038;42.662;23.278;2022-11-21T06:40:26;1.40;;;1.00;;
19758;SDS011;10038;42.662;23.278;2022-11-21T06:42:52;1.10;;;0.93;;
19758;SDS011;10038;42.662;23.278;2022-11-21T06:45:19;1.37;;;1.13;;
19758;SDS011;10038;42.662;23.278;2022-11-21T06:47:46;1.47;;;1.20;;
19758;SDS011;10038;42.662;23.278;2022-11-21T06:50:13;1.80;;;1.00;;
19758;SDS011;10038;42.662;23.278;2022-11-21T06:52:40;1.00;;;0.77;;
19758;SDS011;10038;42.662;23.278;2022-11-21T06:55:07;3.33;;;0.90;;
19758;SDS011;10038;42.662;23.278;2022-11-21T06:57:36;1.43;;;0.80;;
19758;SDS011;10038;42.662;23.278;2022-11-21T07:00:03;1.00;;;0.60;;
19758;SDS011;10038;42.662;23.278;2022-11-21T07:02:31;1.00;;;0.80;;
19758;SDS011;10038;42.662;23.278;2022-11-21T07:04:58;0.90;;;0.60;;
19758;SDS011;10038;42.662;23.278;2022-11-21T07:07:25;1.40;;;0.87;;
19758;SDS011;10038;42.662;23.278;2022-11-21T07:09:52;1.20;;;0.80;;
19758;SDS011;10038;42.662;23.278;2022-11-21T07:12:18;1.80;;;1.10;;
19758;SDS011;10038;42.662;23.278;2022-11-21T07:15:04;5.33;;;1.00;;
19758;SDS011;10038;42.662;23.278;2022-11-21T07:17:32;1.17;;;0.90;;
19758;SDS011;10038;42.662;23.278;2022-11-21T07:19:58;1.20;;;0.80;;
19758;SDS011;10038;42.662;23.278;2022-11-21T07:22:25;1.50;;;0.93;;
19758;SDS011;10038;42.662;23.278;2022-11-21T07:24:52;1.10;;;0.83;;
19758;SDS011;10038;42.662;23.278;2022-11-21T07:27:18;2.33;;;2.13;;
19758;SDS011;10038;42.662;23.278;2022-11-21T07:29:45;2.87;;;1.30;;
19758;SDS011;10038;42.662;23.278;2022-11-21T07:32:13;1.30;;;0.70;;
19758;SDS011;10038;42.662;23.278;2022-11-21T07:34:40;1.20;;;1.10;;
19758;SDS011;10038;42.662;23.278;2022-11-21T07:37:07;1.00;;;0.70;;
19758;SDS011;10038;42.662;23.278;2022-11-21T07:39:34;1.20;;;0.80;;
19758;SDS011;10038;42.662;23.278;2022-11-21T07:42:00;1.27;;;1.00;;
19758;SDS011;10038;42.662;23.278;2022-11-21T07:44:27;1.30;;;1.10;;
19758;SDS011;10038;42.662;23.278;2022-11-21T07:46:54;2.30;;;1.30;;
19758;SDS011;10038;42.662;23.278;2022-11-21T07:49:23;1.20;;;0.80;;
19758;SDS011;10038;42.662;23.278;2022-11-21T07:51:49;2.17;;;1.10;;
19758;SDS011;10038;42.662;23.278;2022-11-21T07:54:16;1.50;;;1.17;;
19758;SDS011;10038;42.662;23.278;2022-11-21T07:56:43;1.60;;;1.10;;
19758;SDS011;10038;42.662;23.278;2022-11-21T07:59:09;1.23;;;0.93;;
19758;SDS011;10038;42.662;23.278;2022-11-21T08:01:36;1.37;;;1.00;;
19758;SDS011;10038;42.662;23.278;2022-11-21T08:04:03;1.60;;;1.00;;
19758;SDS011;10038;42.662;23.278;2022-11-21T08:06:32;1.43;;;1.17;;
19758;SDS011;10038;42.662;23.278;2022-11-21T08:08:58;2.10;;;1.30;;
19758;SDS011;10038;42.662;23.278;2022-11-21T08:11:25;1.90;;;1.37;;
19758;SDS011;10038;42.662;23.278;2022-11-21T08:13:52;1.27;;;0.83;;
19758;SDS011;10038;42.662;23.278;2022-11-21T08:16:19;1.70;;;1.10;;
19758;SDS011;10038;42.662;23.278;2022-11-21T08:18:46;1.30;;;1.10;;
19758;SDS011;10038;42.662;23.278;2022-11-21T08:21:15;1.10;;;1.00;;
19758;SDS011;10038;42.662;23.278;2022-11-21T08:23:43;1.50;;;1.20;;
19758;SDS011;10038;42.662;23.278;2022-11-21T08:26:09;3.20;;;1.10;;
19758;SDS011;10038;42.662;23.278;2022-11-21T08:28:36;1.53;;;1.27;;
19758;SDS011;10038;42.662;23.278;2022-11-21T08:31:03;1.90;;;1.10;;
19758;SDS011;10038;42.662;23.278;2022-11-21T08:33:31;1.40;;;1.10;;
19758;SDS011;10038;42.662;23.278;2022-11-21T08:36:01;1.20;;;1.07;;
19758;SDS011;10038;42.662;23.278;2022-11-21T08:38:29;1.73;;;1.10;;
19758;SDS011;10038;42.662;23.278;2022-11-21T08:40:57;1.03;;;0.83;;
19758;SDS011;10038;42.662;23.278;2022-11-21T08:43:41;1.50;;;0.90;;
19758;SDS011;10038;42.662;23.278;2022-11-21T08:46:08;1.60;;;1.20;;
19758;SDS011;10038;42.662;23.278;2022-11-21T08:48:35;1.10;;;1.00;;
19758;SDS011;10038;42.662;23.278;2022-11-21T08:51:02;2.10;;;1.33;;
19758;SDS011;10038;42.662;23.278;2022-11-21T08:53:28;1.40;;;1.03;;
19758;SDS011;10038;42.662;23.278;2022-11-21T08:55:56;1.10;;;0.97;;
19758;SDS011;10038;42.662;23.278;2022-11-21T08:58:23;1.37;;;1.20;;
19758;SDS011;10038;42.662;23.278;2022-11-21T09:00:50;1.50;;;1.20;;
19758;SDS011;10038;42.662;23.278;2022-11-21T09:03:16;1.37;;;1.00;;
19758;SDS011;10038;42.662;23.278;2022-11-21T09:05:43;1.30;;;1.10;;
19758;SDS011;10038;42.662;23.278;2022-11-21T09:08:10;2.77;;;1.57;;
19758;SDS011;10038;42.662;23.278;2022-11-21T09:10:37;2.03;;;1.30;;
19758;SDS011;10038;42.662;23.278;2022-11-21T09:13:05;4.17;;;1.80;;
19758;SDS011;10038;42.662;23.278;2022-11-21T09:15:31;1.90;;;1.43;;
19758;SDS011;10038;42.662;23.278;2022-11-21T09:18:16;2.10;;;1.47;;
19758;SDS011;10038;42.662;23.278;2022-11-21T09:20:42;2.93;;;1.37;;
19758;SDS011;10038;42.662;23.278;2022-11-21T09:23:10;2.00;;;1.53;;
19758;SDS011;10038;42.662;23.278;2022-11-21T09:25:38;2.03;;;1.40;;
19758;SDS011;10038;42.662;23.278;2022-11-21T09:28:07;2.40;;;1.43;;
19758;SDS011;10038;42.662;23.278;2022-11-21T09:30:35;1.70;;;1.30;;
19758;SDS011;10038;42.662;23.278;2022-11-21T09:33:02;2.17;;;1.97;;
19758;SDS011;10038;42.662;23.278;2022-11-21T09:35:30;2.43;;;1.80;;
19758;SDS011;10038;42.662;23.278;2022-11-21T09:37:57;3.93;;;2.20;;
19758;SDS011;10038;42.662;23.278;2022-11-21T09:40:24;6.30;;;2.60;;
19758;SDS011;10038;42.662;23.278;2022-11-21T09:42:55;3.13;;;2.27;;
19758;SDS011;10038;42.662;23.278;2022-11-21T09:45:30;3.13;;;1.70;;
19758;SDS011;10038;42.662;23.278;2022-11-21T09:48:01;3.30;;;1.63;;
19758;SDS011;10038;42.662;23.278;2022-11-21T09:50:30;1.60;;;1.50;;
19758;SDS011;10038;42.662;23.278;2022-11-21T09:53:00;2.10;;;1.73;;
19758;SDS011;10038;42.662;23.278;2022-11-21T09:55:33;3.27;;;2.40;;
19758;SDS011;10038;42.662;23.278;2022-11-21T09:58:10;3.70;;;2.67;;
19758;SDS011;10038;42.662;23.278;2022-11-21T10:00:47;4.20;;;2.70;;
19758;SDS011;10038;42.662;23.278;2022-11-21T10:03:16;3.73;;;3.30;;
19758;SDS011;10038;42.662;23.278;2022-11-21T10:05:46;4.40;;;3.70;;
19758;SDS011;10038;42.662;23.278;2022-11-21T10:08:16;4.90;;;2.37;;
19758;SDS011;10038;42.662;23.278;2022-11-21T10:10:54;3.03;;;2.37;;
19758;SDS011;10038;42.662;23.278;2022-11-21T10:13:30;2.10;;;1.90;;
19758;SDS011;10038;42.662;23.278;2022-11-21T10:16:11;1.70;;;1.60;;
19758;SDS011;10038;42.662;23.278;2022-11-21T10:21:48;2.30;;;1.67;;
19758;SDS011;10038;42.662;23.278;2022-11-21T10:24:39;2.87;;;1.90;;
19758;SDS011;10038;42.662;23.278;2022-11-21T10:27:13;2.23;;;1.80;;
19758;SDS011;10038;42.662;23.278;2022-11-21T10:29:44;2.67;;;1.80;;
19758;SDS011;10038;42.662;23.278;2022-11-21T10:32:20;2.73;;;2.33;;
19758;SDS011;10038;42.662;23.278;2022-11-21T10:34:51;2.10;;;1.80;;
19758;SDS011;10038;42.662;23.278;2022-11-21T10:37:25;2.70;;;1.70;;
19758;SDS011;10038;42.662;23.278;2022-11-21T10:39:57;2.43;;;1.80;;
19758;SDS011;10038;42.662;23.278;2022-11-21T10:42:34;2.90;;;2.17;;
19758;SDS011;10038;42.662;23.278;2022-11-21T10:45:09;2.97;;;2.20;;
19758;SDS011;10038;42.662;23.278;2022-11-21T10:47:42;2.13;;;1.93;;
19758;SDS011;10038;42.662;23.278;2022-11-21T10:50:13;2.00;;;1.80;;
19758;SDS011;10038;42.662;23.278;2022-11-21T10:52:52;2.80;;;2.20;;
19758;SDS011;10038;42.662;23.278;2022-11-21T10:55:54;2.60;;;2.10;;
19758;SDS011;10038;42.662;23.278;2022-11-21T10:58:27;3.10;;;1.70;;
19758;SDS011;10038;42.662;23.278;2022-11-21T11:01:01;2.13;;;1.93;;
19758;SDS011;10038;42.662;23.278;2022-11-21T11:03:29;3.10;;;2.33;;
19758;SDS011;10038;42.662;23.278;2022-11-21T11:05:57;2.27;;;1.80;;
19758;SDS011;10038;42.662;23.278;2022-11-21T11:08:23;2.10;;;1.90;;
19758;SDS011;10038;42.662;23.278;2022-11-21T11:11:01;2.60;;;2.20;;
19758;SDS011;10038;42.662;23.278;2022-11-21T11:13:29;2.87;;;2.20;;
19758;SDS011;10038;42.662;23.278;2022-11-21T11:16:02;3.00;;;2.70;;
19758;SDS011;10038;42.662;23.278;2022-11-21T11:18:32;3.10;;;2.10;;
19758;SDS011;10038;42.662;23.278;2022-11-21T11:21:15;2.70;;;2.40;;
19758;SDS011;10038;42.662;23.278;2022-11-21T11:23:43;1.93;;;1.70;;
19758;SDS011;10038;42.662;23.278;2022-11-21T11:26:22;2.03;;;1.73;;
19758;SDS011;10038;42.662;23.278;2022-11-21T11:28:51;2.10;;;1.60;;
19758;SDS011;10038;42.662;23.278;2022-11-21T11:31:20;3.90;;;2.90;;
19758;SDS011;10038;42.662;23.278;2022-11-21T11:33:51;4.37;;;1.87;;
19758;SDS011;10038;42.662;23.278;2022-11-21T11:36:32;3.13;;;1.90;;
19758;SDS011;10038;42.662;23.278;2022-11-21T11:39:07;5.70;;;2.37;;
19758;SDS011;10038;42.662;23.278;2022-11-21T11:41:49;3.40;;;2.20;;
19758;SDS011;10038;42.662;23.278;2022-11-21T11:44:48;3.57;;;2.70;;
19758;SDS011;10038;42.662;23.278;2022-11-21T11:47:47;2.90;;;2.60;;
19758;SDS011;10038;42.662;23.278;2022-11-21T11:50:21;3.13;;;2.03;;
19758;SDS011;10038;42.662;23.278;2022-11-21T11:52:52;4.47;;;2.67;;
19758;SDS011;10038;42.662;23.278;2022-11-21T11:55:28;3.10;;;2.23;;
19758;SDS011;10038;42.662;23.278;2022-11-21T11:58:02;2.50;;;2.00;;
19758;SDS011;10038;42.662;23.278;2022-11-21T12:00:38;4.07;;;2.37;;
19758;SDS011;10038;42.662;23.278;2022-11-21T12:03:10;2.50;;;2.27;;
19758;SDS011;10038;42.662;23.278;2022-11-21T12:05:44;4.50;;;2.33;;
19758;SDS011;10038;42.662;23.278;2022-11-21T12:08:22;5.17;;;2.63;;
19758;SDS011;10038;42.662;23.278;2022-11-21T12:10:55;3.70;;;2.40;;
19758;SDS011;10038;42.662;23.278;2022-11-21T12:13:45;5.30;;;2.60;;
19758;SDS011;10038;42.662;23.278;2022-11-21T12:16:14;5.87;;;2.90;;
19758;SDS011;10038;42.662;23.278;2022-11-21T12:18:45;5.67;;;2.80;;
19758;SDS011;10038;42.662;23.278;2022-11-21T12:21:17;4.40;;;2.73;;
19758;SDS011;10038;42.662;23.278;2022-11-21T12:23:45;2.67;;;2.33;;
19758;SDS011;10038;42.662;23.278;2022-11-21T12:26:33;4.67;;;2.87;;
19758;SDS011;10038;42.662;23.278;2022-11-21T12:29:14;3.00;;;2.20;;
19758;SDS011;10038;42.662;23.278;2022-11-21T12:32:11;4.07;;;1.80;;
19758;SDS011;10038;42.662;23.278;2022-11-21T12:34:55;2.63;;;1.60;;
19758;SDS011;10038;42.662;23.278;2022-11-21T12:37:44;3.27;;;1.80;;
19758;SDS011;10038;42.662;23.278;2022-11-21T12:40:22;2.10;;;1.70;;
19758;SDS011;10038;42.662;23.278;2022-11-21T12:42:59;2.93;;;2.03;;
19758;SDS011;10038;42.662;23.278;2022-11-21T12:45:42;2.03;;;1.83;;
19758;SDS011;10038;42.662;23.278;2022-11-21T12:48:14;2.63;;;1.73;;
19758;SDS011;10038;42.662;23.278;2022-11-21T12:54:37;3.60;;;2.37;;
19758;SDS011;10038;42.662;23.278;2022-11-21T12:57:18;2.07;;;1.87;;
19758;SDS011;10038;42.662;23.278;2022-11-21T12:59:49;2.70;;;2.47;;
19758;SDS011;10038;42.662;23.278;2022-11-21T13:02:24;2.67;;;1.87;;
19758;SDS011;10038;42.662;23.278;2022-11-21T13:04:57;2.30;;;1.67;;
19758;SDS011;10038;42.662;23.278;2022-11-21T13:07:29;2.23;;;1.80;;
19758;SDS011;10038;42.662;23.278;2022-11-21T13:09:59;3.47;;;2.30;;
19758;SDS011;10038;42.662;23.278;2022-11-21T13:12:30;5.40;;;2.77;;
19758;SDS011;10038;42.662;23.278;2022-11-21T13:15:08;3.07;;;2.27;;
19758;SDS011;10038;42.662;23.278;2022-11-21T13:17:44;5.20;;;3.30;;
19758;SDS011;10038;42.662;23.278;2022-11-21T13:20:26;5.10;;;3.43;;
19758;SDS011;10038;42.662;23.278;2022-11-21T13:22:56;3.83;;;3.27;;
19758;SDS011;10038;42.662;23.278;2022-11-21T13:25:35;3.27;;;2.93;;
19758;SDS011;10038;42.662;23.278;2022-11-21T13:28:33;3.67;;;2.73;;
19758;SDS011;10038;42.662;23.278;2022-11-21T13:31:01;4.43;;;3.20;;
19758;SDS011;10038;42.662;23.278;2022-11-21T13:33:49;3.87;;;2.63;;
19758;SDS011;10038;42.662;23.278;2022-11-21T13:36:38;6.33;;;3.20;;
19758;SDS011;10038;42.662;23.278;2022-11-21T13:42:07;6.17;;;2.93;;
19758;SDS011;10038;42.662;23.278;2022-11-21T13:44:57;5.57;;;3.40;;
19758;SDS011;10038;42.662;23.278;2022-11-21T13:47:36;3.33;;;3.00;;
19758;SDS011;10038;42.662;23.278;2022-11-21T13:53:25;3.83;;;3.33;;
19758;SDS011;10038;42.662;23.278;2022-11-21T13:56:04;6.30;;;3.10;;
19758;SDS011;10038;42.662;23.278;2022-11-21T13:58:44;5.67;;;2.97;;
19758;SDS011;10038;42.662;23.278;2022-11-21T14:04:22;5.10;;;3.00;;
19758;SDS011;10038;42.662;23.278;2022-11-21T14:07:15;7.33;;;3.17;;
19758;SDS011;10038;42.662;23.278;2022-11-21T14:09:48;3.80;;;2.80;;
19758;SDS011;10038;42.662;23.278;2022-11-21T14:12:18;7.00;;;3.97;;
19758;SDS011;10038;42.662;23.278;2022-11-21T14:14:51;5.00;;;3.57;;
19758;SDS011;10038;42.662;23.278;2022-11-21T14:17:34;5.40;;;3.70;;
19758;SDS011;10038;42.662;23.278;2022-11-21T14:20:13;6.30;;;3.83;;
19758;SDS011;10038;42.662;23.278;2022-11-21T14:22:45;6.63;;;3.73;;
19758;SDS011;10038;42.662;23.278;2022-11-21T14:25:18;5.47;;;3.37;;
19758;SDS011;10038;42.662;23.278;2022-11-21T14:27:48;6.03;;;3.57;;
19758;SDS011;10038;42.662;23.278;2022-11-21T14:30:29;9.40;;;4.50;;
19758;SDS011;10038;42.662;23.278;2022-11-21T14:35:46;4.87;;;3.70;;
19758;SDS011;10038;42.662;23.278;2022-11-21T14:38:14;4.30;;;3.10;;
19758;SDS011;10038;42.662;23.278;2022-11-21T14:40:41;6.43;;;4.23;;
19758;SDS011;10038;42.662;23.278;2022-11-21T14:43:20;5.20;;;3.83;;
19758;SDS011;10038;42.662;23.278;2022-11-21T14:45:55;7.10;;;4.17;;
19758;SDS011;10038;42.662;23.278;2022-11-21T14:48:24;4.97;;;3.30;;
19758;SDS011;10038;42.662;23.278;2022-11-21T14:50:51;4.67;;;3.33;;
19758;SDS011;10038;42.662;23.278;2022-11-21T14:53:18;6.47;;;3.60;;
19758;SDS011;10038;42.662;23.278;2022-11-21T14:55:47;3.57;;;2.90;;
19758;SDS011;10038;42.662;23.278;2022-11-21T14:58:16;6.13;;;3.63;;
19758;SDS011;10038;42.662;23.278;2022-11-21T15:03:29;7.93;;;4.30;;
19758;SDS011;10038;42.662;23.278;2022-11-21T15:05:59;6.63;;;4.50;;
19758;SDS011;10038;42.662;23.278;2022-11-21T15:08:27;7.73;;;4.50;;
19758;SDS011;10038;42.662;23.278;2022-11-21T15:10:54;6.90;;;4.83;;
19758;SDS011;10038;42.662;23.278;2022-11-21T15:13:23;8.03;;;4.23;;